Webcam Richtung Westen

Webcam27

Webcam Richtung Norden

Webcam36

Webcam Richtung Osten

Webcam09

Wetter(Würzburg):
040800Z AUTO 13010G14KT 15KM RERA SCT065 BKN079 BKN091 M00/M03 Q0992
		
Fri 4.12.2020, 08:00 UTC

Sichtweite bis zu 15 km
kürzlich Regen
Wind aus 130° mit 10kt, in Böen bis zu 14kt
einige Wolken (3-4 Achtel) bei 6500 Fuß
unterbrochene Wolkendecke (5-7 Achtel) bei 7900 Fuß
unterbrochene Wolkendecke (5-7 Achtel) bei 9100 Fuß
Temperatur: 0 °C
Taupunkt: -3 °C
QNH: 992 hPa
                         Heute        Morgen
                         04.12        05.12
--------------------------------------------
Beginn der Dämmerung     06:22        06:24
Sonnenaufgang            07:00        07:01
Sonnenuntergang          15:21        15:20
Ende der Dämmerung       15:58        15:58

Alle Zeiten in UTC